Time;durP1;ratioP1;P1;durP2;ratioP2;P2;SDS_P1;SDS_P2;PMS_P1;PMS_P2;Temp;Humidity;BMP_temperature;BMP_pressure;BME280_temperature;BME280_humidity;BME280_pressure;Samples;Min_cycle;Max_cycle;Signal;HPM_P1;HPM_P2
2023/06/21 00:02:59;;;;;;;12.23;8.27;;;;;;;;;;6215135;28;20297;-70
2023/06/21 00:06:06;;;;;;;11.38;8.05;;;;;;;;;;6213928;28;20454;-70
2023/06/21 00:09:12;;;;;;;12.45;8.00;;;;;;;;;;6225618;28;20308;-69
2023/06/21 00:12:17;;;;;;;8.15;7.65;;;;;;;;;;6216662;28;20241;-70
2023/06/21 00:15:21;;;;;;;16.00;8.52;;;;;;;;;;6193532;28;20301;-70
2023/06/21 00:18:26;;;;;;;9.15;8.25;;;;;;;;;;6190859;28;20305;-68
2023/06/21 00:21:32;;;;;;;13.45;8.65;;;;;;;;;;6191488;28;20242;-71
2023/06/21 00:24:37;;;;;;;12.70;8.57;;;;;;;;;;6190930;28;20293;-69
2023/06/21 00:27:42;;;;;;;8.30;7.63;;;;;;;;;;6190695;28;20243;-72
2023/06/21 00:30:46;;;;;;;9.18;8.40;;;;;;;;;;6192933;28;20233;-69
2023/06/21 00:33:52;;;;;;;10.13;8.55;;;;;;;;;;6197235;28;20296;-68
2023/06/21 00:36:58;;;;;;;8.55;7.85;;;;;;;;;;6197506;28;20268;-70
2023/06/21 00:40:07;;;;;;;9.23;8.43;;;;;;;;;;6214620;28;20301;-70
2023/06/21 00:43:12;;;;;;;9.13;8.43;;;;;;;;;;6196778;28;20285;-70
2023/06/21 00:46:16;;;;;;;9.00;8.10;;;;;;;;;;6197219;28;20276;-69
2023/06/21 00:49:21;;;;;;;10.15;8.63;;;;;;;;;;6214647;28;20301;-70
2023/06/21 00:52:27;;;;;;;10.00;8.88;;;;;;;;;;6215057;28;20249;-73
2023/06/21 00:55:32;;;;;;;11.52;8.65;;;;;;;;;;6214407;28;20314;-69
2023/06/21 00:58:39;;;;;;;15.15;8.77;;;;;;;;;;6214151;28;20309;-69
2023/06/21 01:01:44;;;;;;;20.33;8.43;;;;;;;;;;6213623;28;20409;-70
2023/06/21 01:04:50;;;;;;;10.55;8.18;;;;;;;;;;6197890;28;20300;-69
2023/06/21 01:08:03;;;;;;;14.40;9.23;;;;;;;;;;6228812;28;20402;-71
2023/06/21 01:11:18;;;;;;;9.13;8.43;;;;;;;;;;6197263;28;20278;-70
2023/06/21 01:14:31;;;;;;;11.13;9.00;;;;;;;;;;6213848;28;20584;-70
2023/06/21 01:17:37;;;;;;;9.38;8.27;;;;;;;;;;6214119;28;20245;-69
2023/06/21 01:20:44;;;;;;;9.23;8.63;;;;;;;;;;6227736;28;20284;-70
2023/06/21 01:24:02;;;;;;;10.25;8.73;;;;;;;;;;6212174;28;20302;-70
2023/06/21 01:27:22;;;;;;;8.32;7.70;;;;;;;;;;6214165;28;20246;-70
2023/06/21 01:30:30;;;;;;;9.13;8.27;;;;;;;;;;6195892;28;20285;-70
2023/06/21 01:33:36;;;;;;;8.85;8.25;;;;;;;;;;6213306;28;20357;-70
2023/06/21 01:36:41;;;;;;;9.32;8.43;;;;;;;;;;6196043;28;20282;-69
2023/06/21 01:39:46;;;;;;;9.30;8.40;;;;;;;;;;6227778;28;20421;-70
2023/06/21 01:42:51;;;;;;;9.70;8.88;;;;;;;;;;6227816;28;20277;-69
2023/06/21 01:46:02;;;;;;;9.18;8.43;;;;;;;;;;6228527;28;20265;-70
2023/06/21 01:49:08;;;;;;;9.82;8.65;;;;;;;;;;6196050;28;20297;-69
2023/06/21 01:52:13;;;;;;;14.13;9.15;;;;;;;;;;6228060;28;20273;-70
2023/06/21 01:55:19;;;;;;;9.98;8.85;;;;;;;;;;6213216;28;20458;-70
2023/06/21 01:58:24;;;;;;;9.63;8.93;;;;;;;;;;6227467;28;20293;-68
2023/06/21 02:01:31;;;;;;;9.35;8.57;;;;;;;;;;6229212;28;20313;-70
2023/06/21 02:04:38;;;;;;;10.32;9.15;;;;;;;;;;6214035;28;20298;-69
2023/06/21 02:07:44;;;;;;;9.77;8.80;;;;;;;;;;6213315;28;20241;-69
2023/06/21 02:10:49;;;;;;;9.85;8.95;;;;;;;;;;6213165;28;20241;-70
2023/06/21 02:13:54;;;;;;;9.27;8.52;;;;;;;;;;6212543;28;20293;-69
2023/06/21 02:17:00;;;;;;;9.48;8.57;;;;;;;;;;6211842;28;20449;-70
2023/06/21 02:20:12;;;;;;;10.05;9.25;;;;;;;;;;6212480;28;20297;-69
2023/06/21 02:23:18;;;;;;;9.52;8.63;;;;;;;;;;6212299;28;20292;-70
2023/06/21 02:26:22;;;;;;;9.65;8.77;;;;;;;;;;6212981;28;20510;-70
2023/06/21 02:29:27;;;;;;;9.80;9.02;;;;;;;;;;6210779;28;20292;-74
2023/06/21 02:32:33;;;;;;;9.98;9.18;;;;;;;;;;6195574;28;20294;-69
2023/06/21 02:35:38;;;;;;;10.73;9.38;;;;;;;;;;6211806;28;20296;-69
2023/06/21 02:38:43;;;;;;;9.90;8.90;;;;;;;;;;6194296;28;20293;-69
2023/06/21 02:41:47;;;;;;;9.40;8.70;;;;;;;;;;6194497;28;20481;-70
2023/06/21 02:44:52;;;;;;;10.05;9.15;;;;;;;;;;6194383;28;20301;-70
2023/06/21 02:47:59;;;;;;;9.55;8.80;;;;;;;;;;6194563;28;20443;-71
2023/06/21 02:51:03;;;;;;;10.20;9.40;;;;;;;;;;6212092;28;20246;-69
2023/06/21 02:54:08;;;;;;;9.80;9.00;;;;;;;;;;6211564;28;20306;-70
2023/06/21 02:57:13;;;;;;;10.05;9.15;;;;;;;;;;6212140;28;20249;-69
2023/06/21 03:00:23;;;;;;;10.15;9.25;;;;;;;;;;6193713;28;20297;-70
2023/06/21 03:03:29;;;;;;;9.77;8.93;;;;;;;;;;6193377;28;20496;-71
2023/06/21 03:06:35;;;;;;;10.55;9.75;;;;;;;;;;6209401;28;20293;-70
2023/06/21 03:09:40;;;;;;;10.07;9.18;;;;;;;;;;6194249;28;20480;-70
2023/06/21 03:12:45;;;;;;;10.75;9.57;;;;;;;;;;6213949;28;20242;-69
2023/06/21 03:15:53;;;;;;;10.90;9.80;;;;;;;;;;6186035;28;20298;-70
2023/06/21 03:18:59;;;;;;;10.70;9.80;;;;;;;;;;6202637;28;20273;-69
2023/06/21 03:22:05;;;;;;;9.30;8.60;;;;;;;;;;6211436;28;20289;-70
2023/06/21 03:25:11;;;;;;;9.90;9.00;;;;;;;;;;6213331;28;20473;-68
2023/06/21 03:28:17;;;;;;;10.15;9.15;;;;;;;;;;6215537;28;20275;-70
2023/06/21 03:31:22;;;;;;;10.52;9.63;;;;;;;;;;6216003;28;20297;-70
2023/06/21 03:34:29;;;;;;;12.02;10.27;;;;;;;;;;6214156;28;20297;-69
2023/06/21 03:37:33;;;;;;;11.18;10.20;;;;;;;;;;6200233;28;20269;-70
2023/06/21 03:40:38;;;;;;;13.13;10.30;;;;;;;;;;6216124;28;20309;-69
2023/06/21 03:43:42;;;;;;;13.35;9.98;;;;;;;;;;6216727;28;20514;-69
2023/06/21 03:46:50;;;;;;;11.80;10.23;;;;;;;;;;6214508;28;20301;-70
2023/06/21 03:49:57;;;;;;;11.82;10.63;;;;;;;;;;6214599;28;20596;-69
2023/06/21 03:53:03;;;;;;;12.95;10.75;;;;;;;;;;6217069;28;20517;-70
2023/06/21 03:56:09;;;;;;;10.90;10.00;;;;;;;;;;6213872;28;20474;-70
2023/06/21 03:59:14;;;;;;;12.07;10.90;;;;;;;;;;6212516;28;20298;-69
2023/06/21 04:02:20;;;;;;;13.32;10.43;;;;;;;;;;6206274;28;20313;-70
2023/06/21 04:05:26;;;;;;;12.48;10.55;;;;;;;;;;6166336;28;20404;-71
2023/06/21 04:08:31;;;;;;;12.82;10.52;;;;;;;;;;6168050;29;20243;-71
2023/06/21 04:11:35;;;;;;;11.25;10.15;;;;;;;;;;6166799;28;20311;-69
2023/06/21 04:14:40;;;;;;;16.33;10.38;;;;;;;;;;6176677;28;20302;-70
2023/06/21 04:17:44;;;;;;;12.35;10.10;;;;;;;;;;6191189;28;20508;-69
2023/06/21 04:20:51;;;;;;;13.48;9.32;;;;;;;;;;6190792;28;20314;-69
2023/06/21 04:23:55;;;;;;;10.48;9.48;;;;;;;;;;6189379;28;20266;-70
2023/06/21 04:27:00;;;;;;;11.88;8.88;;;;;;;;;;6189847;28;20269;-70
2023/06/21 04:30:05;;;;;;;10.02;8.88;;;;;;;;;;6198893;28;20301;-69
2023/06/21 04:33:10;;;;;;;9.57;8.73;;;;;;;;;;6215217;28;20246;-70
2023/06/21 04:36:17;;;;;;;14.98;9.07;;;;;;;;;;6234105;28;20490;-70
2023/06/21 04:39:22;;;;;;;9.60;8.10;;;;;;;;;;6239450;28;20301;-70
2023/06/21 04:42:26;;;;;;;10.00;8.25;;;;;;;;;;6239629;28;20260;-69
2023/06/21 04:45:32;;;;;;;8.55;7.72;;;;;;;;;;6239000;28;20300;-72
2023/06/21 04:48:37;;;;;;;11.05;8.18;;;;;;;;;;6239542;28;20245;-70
2023/06/21 04:51:44;;;;;;;8.77;7.95;;;;;;;;;;6238671;28;20305;-69
2023/06/21 04:54:48;;;;;;;10.15;7.68;;;;;;;;;;6238756;28;20305;-70
2023/06/21 04:57:53;;;;;;;8.20;7.50;;;;;;;;;;6238853;28;20260;-70
2023/06/21 05:01:00;;;;;;;11.85;7.53;;;;;;;;;;6238835;28;20293;-69
2023/06/21 05:04:05;;;;;;;10.07;7.60;;;;;;;;;;6238208;28;20286;-70
2023/06/21 05:07:11;;;;;;;7.95;7.15;;;;;;;;;;6238977;28;20245;-70
2023/06/21 05:10:16;;;;;;;7.88;7.28;;;;;;;;;;6220156;28;20588;-69
2023/06/21 05:13:20;;;;;;;8.32;6.85;;;;;;;;;;6215871;28;20246;-70
2023/06/21 05:16:25;;;;;;;7.88;7.18;;;;;;;;;;6238008;28;20489;-70
2023/06/21 05:19:30;;;;;;;9.18;6.75;;;;;;;;;;6236246;28;20315;-69
2023/06/21 05:22:36;;;;;;;8.18;6.43;;;;;;;;;;6238894;28;20273;-69
2023/06/21 05:25:40;;;;;;;7.07;6.47;;;;;;;;;;6239179;28;20588;-69
2023/06/21 05:28:45;;;;;;;7.05;6.45;;;;;;;;;;6221449;28;20273;-69
2023/06/21 05:31:49;;;;;;;7.93;6.28;;;;;;;;;;6238050;28;20296;-70
2023/06/21 05:34:54;;;;;;;11.88;7.18;;;;;;;;;;6238189;28;20296;-69
2023/06/21 05:38:00;;;;;;;7.88;7.15;;;;;;;;;;6238210;28;20237;-69
2023/06/21 05:41:05;;;;;;;8.05;7.22;;;;;;;;;;6237842;28;20293;-71
2023/06/21 05:44:10;;;;;;;7.70;7.10;;;;;;;;;;6237636;28;20264;-70
2023/06/21 05:47:15;;;;;;;7.85;6.90;;;;;;;;;;6238108;28;20245;-70
2023/06/21 05:50:19;;;;;;;11.02;7.13;;;;;;;;;;6238227;28;20301;-70
2023/06/21 05:53:25;;;;;;;6.95;6.32;;;;;;;;;;6238531;28;20244;-70
2023/06/21 05:56:31;;;;;;;7.90;6.78;;;;;;;;;;6237436;28;20296;-69
2023/06/21 05:59:36;;;;;;;8.45;7.18;;;;;;;;;;6237323;28;20300;-70
2023/06/21 06:02:40;;;;;;;7.05;6.57;;;;;;;;;;6237693;28;20280;-70
2023/06/21 06:05:46;;;;;;;7.13;6.60;;;;;;;;;;6237244;28;20300;-69
2023/06/21 06:08:52;;;;;;;9.63;6.93;;;;;;;;;;6238014;28;20248;-70
2023/06/21 06:11:57;;;;;;;7.40;6.57;;;;;;;;;;6224876;28;20280;-70
2023/06/21 06:15:02;;;;;;;6.75;6.15;;;;;;;;;;6212467;28;20504;-69
2023/06/21 06:18:06;;;;;;;6.68;6.22;;;;;;;;;;6212979;28;20239;-70
2023/06/21 06:21:11;;;;;;;6.82;5.93;;;;;;;;;;6212578;28;20313;-70
2023/06/21 06:24:17;;;;;;;6.30;5.88;;;;;;;;;;6212281;28;20301;-69
2023/06/21 06:27:22;;;;;;;6.05;5.75;;;;;;;;;;6212593;28;20269;-69
2023/06/21 06:30:26;;;;;;;6.97;6.30;;;;;;;;;;6212306;28;20301;-69
2023/06/21 06:33:31;;;;;;;6.50;6.07;;;;;;;;;;6212242;28;20502;-69
2023/06/21 06:36:36;;;;;;;6.40;6.00;;;;;;;;;;6212146;28;20301;-70
2023/06/21 06:39:42;;;;;;;6.75;6.25;;;;;;;;;;6212132;28;20569;-70
2023/06/21 06:42:46;;;;;;;7.07;6.65;;;;;;;;;;6212767;28;20268;-70
2023/06/21 06:45:51;;;;;;;6.88;6.20;;;;;;;;;;6212340;28;20296;-69
2023/06/21 06:48:56;;;;;;;7.43;6.70;;;;;;;;;;6211565;28;20413;-71
2023/06/21 06:52:00;;;;;;;6.72;6.22;;;;;;;;;;6212188;28;20246;-70
2023/06/21 06:55:07;;;;;;;7.65;6.28;;;;;;;;;;6211798;28;20297;-69
2023/06/21 06:58:11;;;;;;;8.52;6.43;;;;;;;;;;6211103;28;20242;-70
2023/06/21 07:01:16;;;;;;;9.57;6.25;;;;;;;;;;6212053;28;20485;-69
2023/06/21 07:04:21;;;;;;;6.93;6.45;;;;;;;;;;6211472;28;20324;-70
2023/06/21 07:07:26;;;;;;;6.63;6.00;;;;;;;;;;6213204;28;20237;-69
2023/06/21 07:10:32;;;;;;;9.65;7.25;;;;;;;;;;6211576;28;20293;-75
2023/06/21 07:13:36;;;;;;;7.03;6.28;;;;;;;;;;6236770;28;20426;-70
2023/06/21 07:16:43;;;;;;;7.05;6.40;;;;;;;;;;6235883;28;20493;-70
2023/06/21 07:19:48;;;;;;;6.43;5.95;;;;;;;;;;6235891;28;20308;-69
2023/06/21 07:22:52;;;;;;;6.70;6.13;;;;;;;;;;6236209;28;20462;-70
2023/06/21 07:25:58;;;;;;;6.13;5.90;;;;;;;;;;6235870;28;20296;-72
2023/06/21 07:29:03;;;;;;;6.93;6.40;;;;;;;;;;6236096;28;20245;-70
2023/06/21 07:32:08;;;;;;;14.25;6.80;;;;;;;;;;6236350;28;20241;-70
2023/06/21 07:35:14;;;;;;;7.90;6.35;;;;;;;;;;6235843;28;20304;-70
2023/06/21 07:38:19;;;;;;;8.68;6.28;;;;;;;;;;6236481;28;20517;-70
2023/06/21 07:41:25;;;;;;;5.90;5.60;;;;;;;;;;6236045;28;20312;-70
2023/06/21 07:44:29;;;;;;;6.63;6.03;;;;;;;;;;6235761;28;20300;-69
2023/06/21 07:47:34;;;;;;;8.93;5.68;;;;;;;;;;6235975;28;20245;-70
2023/06/21 07:50:39;;;;;;;13.45;5.95;;;;;;;;;;6235809;28;20308;-70
2023/06/21 07:53:44;;;;;;;8.40;6.07;;;;;;;;;;6236880;28;20244;-70
2023/06/21 07:56:50;;;;;;;6.07;5.55;;;;;;;;;;6236186;28;20593;-70
2023/06/21 07:59:55;;;;;;;10.65;6.00;;;;;;;;;;6235626;28;20308;-68
2023/06/21 08:03:01;;;;;;;9.23;5.88;;;;;;;;;;6235862;28;20458;-70
2023/06/21 08:06:06;;;;;;;5.45;5.25;;;;;;;;;;6235596;28;20453;-70
2023/06/21 08:09:11;;;;;;;5.88;5.40;;;;;;;;;;6235499;28;20502;-70
2023/06/21 08:12:17;;;;;;;6.53;5.20;;;;;;;;;;6225864;28;20250;-70
2023/06/21 08:15:23;;;;;;;5.78;5.25;;;;;;;;;;6202059;28;20352;-69
2023/06/21 08:18:27;;;;;;;5.70;5.30;;;;;;;;;;6191707;28;20277;-70
2023/06/21 08:21:32;;;;;;;9.75;5.90;;;;;;;;;;6212195;28;20467;-71
2023/06/21 08:24:36;;;;;;;5.82;5.40;;;;;;;;;;6220952;28;20300;-70
2023/06/21 08:27:42;;;;;;;8.65;5.60;;;;;;;;;;6240132;28;20241;-69
2023/06/21 08:30:47;;;;;;;5.78;5.38;;;;;;;;;;6237754;28;20292;-68
2023/06/21 08:33:51;;;;;;;9.43;5.40;;;;;;;;;;6239904;28;20244;-66
2023/06/21 08:36:56;;;;;;;8.07;5.50;;;;;;;;;;6241792;28;20281;-69
2023/06/21 08:40:01;;;;;;;16.13;6.95;;;;;;;;;;6239837;28;20301;-67
2023/06/21 08:43:07;;;;;;;8.23;5.55;;;;;;;;;;6239441;28;20249;-69
2023/06/21 08:46:11;;;;;;;6.72;6.18;;;;;;;;;;6239047;28;20308;-70
2023/06/21 08:49:20;;;;;;;7.65;5.95;;;;;;;;;;6239046;28;20296;-70
2023/06/21 08:52:26;;;;;;;6.10;5.78;;;;;;;;;;6239023;28;20233;-69
2023/06/21 08:55:31;;;;;;;5.75;5.30;;;;;;;;;;6238883;28;20305;-69
2023/06/21 08:58:43;;;;;;;6.05;5.55;;;;;;;;;;6239753;28;20241;-70
2023/06/21 09:01:54;;;;;;;12.70;6.20;;;;;;;;;;6238960;28;20296;-67
2023/06/21 09:05:03;;;;;;;6.55;6.03;;;;;;;;;;6238549;28;20299;-67
2023/06/21 09:08:08;;;;;;;5.88;5.53;;;;;;;;;;6238743;28;20246;-71
2023/06/21 09:11:15;;;;;;;5.53;5.32;;;;;;;;;;6232473;28;20476;-68
2023/06/21 09:14:22;;;;;;;7.05;5.60;;;;;;;;;;6210162;28;20630;-69
2023/06/21 09:17:27;;;;;;;6.80;6.15;;;;;;;;;;6189962;28;20246;-70
2023/06/21 09:20:32;;;;;;;8.73;6.43;;;;;;;;;;6189025;28;20294;-69
2023/06/21 09:23:38;;;;;;;8.45;6.10;;;;;;;;;;6189579;28;20545;-68
2023/06/21 09:26:42;;;;;;;6.03;5.72;;;;;;;;;;6189519;28;20305;-68
2023/06/21 09:29:48;;;;;;;7.45;5.63;;;;;;;;;;6196884;28;20328;-70
2023/06/21 09:32:53;;;;;;;6.45;6.05;;;;;;;;;;6213776;28;20246;-69
2023/06/21 09:35:58;;;;;;;8.02;6.18;;;;;;;;;;6205475;28;20297;-69
2023/06/21 09:39:08;;;;;;;6.47;5.85;;;;;;;;;;6196098;28;20277;-69
2023/06/21 09:42:13;;;;;;;6.70;6.30;;;;;;;;;;6213501;28;20242;-69
2023/06/21 09:45:21;;;;;;;8.20;6.07;;;;;;;;;;6213132;28;20296;-70
2023/06/21 09:48:26;;;;;;;5.95;5.57;;;;;;;;;;6213583;28;20238;-70
2023/06/21 09:51:31;;;;;;;6.68;6.07;;;;;;;;;;6212921;28;20577;-68
2023/06/21 09:54:42;;;;;;;6.75;6.35;;;;;;;;;;6212104;28;20301;-69
2023/06/21 09:57:47;;;;;;;9.90;6.05;;;;;;;;;;6212823;28;20241;-70
2023/06/21 10:00:53;;;;;;;7.00;6.60;;;;;;;;;;6212566;28;20301;-69
2023/06/21 10:03:58;;;;;;;6.82;6.30;;;;;;;;;;6204545;28;20459;-70
2023/06/21 10:07:04;;;;;;;6.80;6.30;;;;;;;;;;6212547;28;20238;-68
2023/06/21 10:10:10;;;;;;;12.38;6.50;;;;;;;;;;6213371;28;20300;-70
2023/06/21 10:13:14;;;;;;;8.02;6.40;;;;;;;;;;6212700;28;20249;-68
2023/06/21 10:16:21;;;;;;;9.23;6.40;;;;;;;;;;6194820;28;20461;-68
2023/06/21 10:19:26;;;;;;;12.07;6.35;;;;;;;;;;6212227;28;20309;-68
2023/06/21 10:22:33;;;;;;;11.10;6.40;;;;;;;;;;6212735;28;20558;-69
2023/06/21 10:25:39;;;;;;;9.80;6.72;;;;;;;;;;6212169;28;20301;-69
2023/06/21 10:28:46;;;;;;;9.25;6.22;;;;;;;;;;6212595;28;20243;-69
2023/06/21 10:31:54;;;;;;;7.72;6.90;;;;;;;;;;6211936;28;20301;-68
2023/06/21 10:35:05;;;;;;;7.30;6.70;;;;;;;;;;6212184;28;20451;-69
2023/06/21 10:38:12;;;;;;;8.25;6.88;;;;;;;;;;6212321;28;20242;-69
2023/06/21 10:41:17;;;;;;;9.63;7.30;;;;;;;;;;6211951;28;20384;-68
2023/06/21 10:44:22;;;;;;;6.72;6.20;;;;;;;;;;6226994;28;20297;-68
2023/06/21 10:47:30;;;;;;;6.88;6.47;;;;;;;;;;6212237;28;20250;-68
2023/06/21 10:50:35;;;;;;;7.35;6.65;;;;;;;;;;6211831;28;20597;-68
2023/06/21 10:53:41;;;;;;;7.93;7.00;;;;;;;;;;6212124;28;20241;-70
2023/06/21 10:56:45;;;;;;;7.65;6.90;;;;;;;;;;6211129;28;20305;-70
2023/06/21 10:59:50;;;;;;;6.93;6.47;;;;;;;;;;6211368;28;20573;-68
2023/06/21 11:02:56;;;;;;;6.78;6.35;;;;;;;;;;6226394;28;20342;-69
2023/06/21 11:06:24;;;;;;;7.25;6.40;;;;;;;;;;6211189;28;20300;-69
2023/06/21 11:09:28;;;;;;;8.70;6.97;;;;;;;;;;6211151;28;20617;-70
2023/06/21 11:12:36;;;;;;;18.40;6.68;;;;;;;;;;6212842;28;20245;-69
2023/06/21 11:15:41;;;;;;;7.45;6.68;;;;;;;;;;6211336;28;20306;-70
2023/06/21 11:18:55;;;;;;;8.10;7.47;;;;;;;;;;6211613;28;20522;-69
2023/06/21 11:21:59;;;;;;;7.18;6.70;;;;;;;;;;6210782;28;20353;-70
2023/06/21 11:25:17;;;;;;;16.90;7.10;;;;;;;;;;6210829;28;20301;-70
2023/06/21 11:28:29;;;;;;;7.55;6.93;;;;;;;;;;6211398;28;20241;-69
2023/06/21 11:31:40;;;;;;;13.48;7.60;;;;;;;;;;6211279;28;20301;-70
2023/06/21 11:34:57;;;;;;;20.45;7.63;;;;;;;;;;6211547;28;20289;-69
2023/06/21 11:38:02;;;;;;;10.57;6.05;;;;;;;;;;6210270;28;20458;-68
2023/06/21 11:41:34;;;;;;;7.22;6.55;;;;;;;;;;6211094;28;20297;-69
2023/06/21 11:44:38;;;;;;;7.50;6.82;;;;;;;;;;6212210;28;20320;-69
2023/06/21 11:47:58;;;;;;;9.85;6.40;;;;;;;;;;6216269;28;20269;-70
2023/06/21 11:51:11;;;;;;;12.90;6.72;;;;;;;;;;6217504;28;20309;-69
2023/06/21 11:54:30;;;;;;;11.10;6.55;;;;;;;;;;6215979;28;20296;-69
2023/06/21 11:57:44;;;;;;;7.20;6.80;;;;;;;;;;6216132;28;20253;-69
2023/06/21 12:00:49;;;;;;;7.60;6.90;;;;;;;;;;6215415;28;20293;-69
2023/06/21 12:03:58;;;;;;;15.10;7.57;;;;;;;;;;6215164;28;20569;-68
2023/06/21 12:07:05;;;;;;;10.15;6.63;;;;;;;;;;6215569;28;20273;-69
2023/06/21 12:10:11;;;;;;;11.32;7.20;;;;;;;;;;6215060;28;20292;-69
2023/06/21 12:13:19;;;;;;;14.07;7.28;;;;;;;;;;6215659;28;20454;-69
2023/06/21 12:16:26;;;;;;;14.57;7.07;;;;;;;;;;6215464;28;20301;-69
2023/06/21 12:19:33;;;;;;;11.02;6.97;;;;;;;;;;6215633;28;20292;-69
2023/06/21 12:22:39;;;;;;;10.23;6.60;;;;;;;;;;6215745;28;20245;-69
2023/06/21 12:25:45;;;;;;;7.65;7.15;;;;;;;;;;6215230;28;20309;-69
2023/06/21 12:28:49;;;;;;;8.35;7.07;;;;;;;;;;6215828;28;20241;-68
2023/06/21 12:31:56;;;;;;;11.73;7.13;;;;;;;;;;6214924;28;20273;-70
2023/06/21 12:35:04;;;;;;;8.18;7.43;;;;;;;;;;6219791;28;20301;-69
2023/06/21 12:38:15;;;;;;;7.82;7.18;;;;;;;;;;6219909;28;20525;-68
2023/06/21 12:41:20;;;;;;;13.45;7.43;;;;;;;;;;6215494;28;20301;-69
2023/06/21 12:44:26;;;;;;;7.70;7.18;;;;;;;;;;6215261;28;20305;-68
2023/06/21 12:47:33;;;;;;;7.65;6.95;;;;;;;;;;6216445;28;20282;-68
2023/06/21 12:50:37;;;;;;;7.85;7.25;;;;;;;;;;6214306;28;20292;-68
2023/06/21 12:53:43;;;;;;;8.13;7.43;;;;;;;;;;6215457;28;20242;-68
2023/06/21 12:56:49;;;;;;;8.15;7.38;;;;;;;;;;6213633;28;20304;-69
2023/06/21 12:59:54;;;;;;;8.10;7.50;;;;;;;;;;6214679;28;20305;-68
2023/06/21 13:02:58;;;;;;;12.45;7.68;;;;;;;;;;6209900;28;20290;-68
2023/06/21 13:06:04;;;;;;;7.88;7.30;;;;;;;;;;6189672;28;20297;-69
2023/06/21 13:09:11;;;;;;;8.40;7.50;;;;;;;;;;6189715;28;20235;-70
2023/06/21 13:12:16;;;;;;;7.55;7.10;;;;;;;;;;6190069;28;20428;-71
2023/06/21 13:15:21;;;;;;;7.78;7.07;;;;;;;;;;6189803;28;20298;-69
2023/06/21 13:18:27;;;;;;;9.63;7.32;;;;;;;;;;6189632;28;20272;-68
2023/06/21 13:21:33;;;;;;;7.75;7.15;;;;;;;;;;6189499;28;20305;-69
2023/06/21 13:24:39;;;;;;;8.73;6.50;;;;;;;;;;6188185;28;20317;-69
2023/06/21 13:27:45;;;;;;;7.20;6.60;;;;;;;;;;6190280;28;20266;-68
2023/06/21 13:30:50;;;;;;;8.48;6.70;;;;;;;;;;6189131;28;20306;-69
2023/06/21 13:33:55;;;;;;;12.82;7.25;;;;;;;;;;6188732;28;20242;-69
2023/06/21 13:36:59;;;;;;;10.60;7.28;;;;;;;;;;6188863;28;20258;-70
2023/06/21 13:40:08;;;;;;;7.05;6.45;;;;;;;;;;6188796;28;20373;-70
2023/06/21 13:43:13;;;;;;;6.78;6.25;;;;;;;;;;6188913;28;20246;-69
2023/06/21 13:46:17;;;;;;;7.55;6.80;;;;;;;;;;6188490;28;20466;-70
2023/06/21 13:49:22;;;;;;;7.60;6.80;;;;;;;;;;6188887;28;20301;-70
2023/06/21 13:52:31;;;;;;;7.15;6.47;;;;;;;;;;6188837;28;20239;-68
2023/06/21 13:55:40;;;;;;;7.30;6.70;;;;;;;;;;6189436;28;20306;-69
2023/06/21 13:58:45;;;;;;;7.50;6.90;;;;;;;;;;6188535;28;20247;-69
2023/06/21 14:01:49;;;;;;;7.88;7.03;;;;;;;;;;6187781;28;20593;-68
2023/06/21 14:04:54;;;;;;;7.00;6.45;;;;;;;;;;6208244;28;20301;-71
2023/06/21 14:07:59;;;;;;;7.47;6.43;;;;;;;;;;6211900;28;20456;-72
2023/06/21 14:11:05;;;;;;;9.13;7.20;;;;;;;;;;6212195;28;20289;-68
2023/06/21 14:14:09;;;;;;;10.13;6.95;;;;;;;;;;6211793;28;20234;-68
2023/06/21 14:17:14;;;;;;;7.60;6.90;;;;;;;;;;6212586;28;20258;-69
2023/06/21 14:20:19;;;;;;;8.00;7.55;;;;;;;;;;6211900;28;20313;-67
2023/06/21 14:23:24;;;;;;;7.47;6.88;;;;;;;;;;6212545;28;20246;-69
2023/06/21 14:26:29;;;;;;;8.23;7.55;;;;;;;;;;6211618;28;20301;-69
2023/06/21 14:29:34;;;;;;;12.48;7.90;;;;;;;;;;6212039;28;20300;-69
2023/06/21 14:32:39;;;;;;;15.23;7.70;;;;;;;;;;6212185;28;20242;-69
2023/06/21 14:35:44;;;;;;;9.52;8.82;;;;;;;;;;6212074;28;20569;-68
2023/06/21 14:38:49;;;;;;;9.05;8.05;;;;;;;;;;6212406;28;20246;-71
2023/06/21 14:41:55;;;;;;;10.07;8.95;;;;;;;;;;6211351;28;20293;-69
2023/06/21 14:44:59;;;;;;;9.57;7.57;;;;;;;;;;6211228;28;20300;-68
2023/06/21 14:48:06;;;;;;;8.57;7.18;;;;;;;;;;6212079;28;20452;-68
2023/06/21 14:51:14;;;;;;;7.40;6.75;;;;;;;;;;6211787;28;20309;-69
2023/06/21 14:54:18;;;;;;;7.80;7.13;;;;;;;;;;6226374;28;20376;-68
2023/06/21 14:57:24;;;;;;;7.85;7.20;;;;;;;;;;6211872;28;20249;-70
2023/06/21 15:00:29;;;;;;;8.80;7.07;;;;;;;;;;6212130;28;20321;-69
2023/06/21 15:03:34;;;;;;;8.60;7.13;;;;;;;;;;6215132;28;20382;-69
2023/06/21 15:06:39;;;;;;;10.35;7.70;;;;;;;;;;6211680;28;20313;-69
2023/06/21 15:09:47;;;;;;;8.90;7.88;;;;;;;;;;6211429;28;20308;-68
2023/06/21 15:12:53;;;;;;;8.32;7.55;;;;;;;;;;6212119;28;20246;-69
2023/06/21 15:16:06;;;;;;;7.40;7.00;;;;;;;;;;6204942;28;20301;-69
2023/06/21 15:19:11;;;;;;;7.15;6.63;;;;;;;;;;6211797;28;20241;-69
2023/06/21 15:22:16;;;;;;;7.97;7.00;;;;;;;;;;6199693;28;20435;-69
2023/06/21 15:25:21;;;;;;;8.52;7.00;;;;;;;;;;6231155;28;20301;-69
2023/06/21 15:28:28;;;;;;;8.00;7.30;;;;;;;;;;6199036;28;20389;-70
2023/06/21 15:31:32;;;;;;;10.65;6.88;;;;;;;;;;6216418;28;20301;-69
2023/06/21 15:34:37;;;;;;;11.55;7.18;;;;;;;;;;6216312;28;20296;-70
2023/06/21 15:37:41;;;;;;;10.50;8.00;;;;;;;;;;6216636;28;20313;-69
2023/06/21 15:40:46;;;;;;;12.13;7.53;;;;;;;;;;6216583;28;20313;-72
2023/06/21 15:43:52;;;;;;;7.72;7.20;;;;;;;;;;6216167;28;20242;-69
2023/06/21 15:46:57;;;;;;;8.65;7.03;;;;;;;;;;6215582;28;20274;-69
2023/06/21 15:50:06;;;;;;;8.32;7.63;;;;;;;;;;6215751;28;20301;-70
2023/06/21 15:53:11;;;;;;;8.10;7.38;;;;;;;;;;6198469;28;20517;-68
2023/06/21 15:56:16;;;;;;;8.77;7.20;;;;;;;;;;6215848;28;20306;-69
2023/06/21 15:59:22;;;;;;;8.60;7.95;;;;;;;;;;6216126;28;20325;-69
2023/06/21 16:02:26;;;;;;;8.80;7.82;;;;;;;;;;6216320;28;20550;-68
2023/06/21 16:05:32;;;;;;;8.07;7.32;;;;;;;;;;6215638;28;20474;-70
2023/06/21 16:08:36;;;;;;;8.18;7.50;;;;;;;;;;6215710;28;20265;-70
2023/06/21 16:11:41;;;;;;;7.78;7.07;;;;;;;;;;6215294;28;20301;-69
2023/06/21 16:14:48;;;;;;;8.55;7.88;;;;;;;;;;6215315;28;20309;-69
2023/06/21 16:17:52;;;;;;;8.23;7.45;;;;;;;;;;6215606;28;20267;-69
2023/06/21 16:20:58;;;;;;;8.80;7.47;;;;;;;;;;6229601;28;20297;-70
2023/06/21 16:24:03;;;;;;;9.85;7.82;;;;;;;;;;6215062;28;20241;-69
2023/06/21 16:27:08;;;;;;;7.88;7.25;;;;;;;;;;6215114;28;20234;-69
2023/06/21 16:30:15;;;;;;;8.18;7.18;;;;;;;;;;6214348;28;20297;-70
2023/06/21 16:33:20;;;;;;;7.20;6.88;;;;;;;;;;6215472;28;20242;-70
2023/06/21 16:36:24;;;;;;;7.75;7.28;;;;;;;;;;6215211;28;20300;-68
2023/06/21 16:39:30;;;;;;;7.40;6.78;;;;;;;;;;6218351;28;20456;-70
2023/06/21 16:42:34;;;;;;;6.93;6.32;;;;;;;;;;6214753;28;20417;-68
2023/06/21 16:45:40;;;;;;;7.03;6.57;;;;;;;;;;6214377;28;20469;-69
2023/06/21 16:48:46;;;;;;;7.78;7.10;;;;;;;;;;6214929;28;20261;-68
2023/06/21 16:51:51;;;;;;;9.40;7.65;;;;;;;;;;6214275;28;20297;-70
2023/06/21 16:54:55;;;;;;;14.93;8.10;;;;;;;;;;6206416;28;20567;-69
2023/06/21 16:58:00;;;;;;;9.85;7.05;;;;;;;;;;6214600;28;20245;-69
2023/06/21 17:01:07;;;;;;;8.63;7.80;;;;;;;;;;6213943;28;20589;-69
2023/06/21 17:04:12;;;;;;;9.20;8.00;;;;;;;;;;6213986;28;20323;-70
2023/06/21 17:07:17;;;;;;;8.45;7.45;;;;;;;;;;6214581;28;20334;-70
2023/06/21 17:10:22;;;;;;;11.77;7.43;;;;;;;;;;6212920;28;20300;-69
2023/06/21 17:13:26;;;;;;;9.45;7.10;;;;;;;;;;6214887;28;20245;-70
2023/06/21 17:16:33;;;;;;;12.23;8.32;;;;;;;;;;6215428;28;20302;-69
2023/06/21 17:19:37;;;;;;;13.75;7.88;;;;;;;;;;6214884;28;20321;-68
2023/06/21 17:22:42;;;;;;;7.82;6.68;;;;;;;;;;6215811;28;20238;-72
2023/06/21 17:25:47;;;;;;;15.43;7.32;;;;;;;;;;6215937;28;20292;-70
2023/06/21 17:28:51;;;;;;;10.65;7.28;;;;;;;;;;6216074;28;20573;-69
2023/06/21 17:32:00;;;;;;;12.05;8.60;;;;;;;;;;6214098;28;20290;-69
2023/06/21 17:35:05;;;;;;;14.50;8.57;;;;;;;;;;6213556;28;20382;-69
2023/06/21 17:38:10;;;;;;;17.00;9.20;;;;;;;;;;6213844;28;20238;-71
2023/06/21 17:41:15;;;;;;;15.07;9.02;;;;;;;;;;6213471;28;20482;-70
2023/06/21 17:44:19;;;;;;;17.08;9.15;;;;;;;;;;6212110;28;20305;-71
2023/06/21 17:47:27;;;;;;;19.20;8.48;;;;;;;;;;6213366;28;20242;-69
2023/06/21 17:50:32;;;;;;;11.65;7.72;;;;;;;;;;6212888;28;20317;-69
2023/06/21 17:53:37;;;;;;;13.63;7.38;;;;;;;;;;6213099;28;20242;-69
2023/06/21 17:56:41;;;;;;;15.40;8.13;;;;;;;;;;6212742;28;20572;-69
2023/06/21 17:59:46;;;;;;;17.75;9.05;;;;;;;;;;6212751;28;20300;-70
2023/06/21 18:02:52;;;;;;;15.05;8.75;;;;;;;;;;6213309;28;20297;-70
2023/06/21 18:05:58;;;;;;;16.27;8.77;;;;;;;;;;6212213;28;20317;-69
2023/06/21 18:09:02;;;;;;;16.48;8.13;;;;;;;;;;6212267;28;20274;-70
2023/06/21 18:12:11;;;;;;;12.15;7.53;;;;;;;;;;6213456;28;20246;-70
2023/06/21 18:15:15;;;;;;;9.70;7.22;;;;;;;;;;6215417;28;20297;-69
2023/06/21 18:18:22;;;;;;;11.60;8.57;;;;;;;;;;6213357;28;20375;-72
2023/06/21 18:21:26;;;;;;;9.50;7.68;;;;;;;;;;6212881;28;20300;-69
2023/06/21 18:24:31;;;;;;;8.95;8.05;;;;;;;;;;6214134;28;20301;-70
2023/06/21 18:27:36;;;;;;;12.23;8.82;;;;;;;;;;6214646;28;20234;-70
2023/06/21 18:30:41;;;;;;;9.52;7.85;;;;;;;;;;6214388;28;20322;-69